createdAt,value
2022-12-20T00:00:29.208Z,15.03
2022-12-20T00:01:32.642Z,14.47
2022-12-20T00:02:34.616Z,13.87
2022-12-20T00:03:37.091Z,14.30
2022-12-20T00:04:38.801Z,14.07
2022-12-20T00:05:41.108Z,13.93
2022-12-20T00:06:43.037Z,14.60
2022-12-20T00:07:44.945Z,14.73
2022-12-20T00:08:47.486Z,14.03
2022-12-20T00:09:49.264Z,13.93
2022-12-20T00:10:51.188Z,14.60
2022-12-20T00:11:53.007Z,14.77
2022-12-20T00:12:55.163Z,13.70
2022-12-20T00:14:05.901Z,14.83
2022-12-20T00:15:07.845Z,14.00
2022-12-20T00:16:16.957Z,14.23
2022-12-20T00:17:18.896Z,13.87
2022-12-20T00:18:20.665Z,13.20
2022-12-20T00:19:22.312Z,13.90
2022-12-20T00:20:27.173Z,14.33
2022-12-20T00:21:29.464Z,13.30
2022-12-20T00:22:31.240Z,13.63
2022-12-20T00:23:33.613Z,13.20
2022-12-20T00:24:35.307Z,13.40
2022-12-20T00:25:37.359Z,12.53
2022-12-20T00:26:39.316Z,12.33
2022-12-20T00:27:41.106Z,12.73
2022-12-20T00:28:43.205Z,11.53
2022-12-20T00:29:45.190Z,12.63
2022-12-20T00:30:47.000Z,13.00
2022-12-20T00:31:48.861Z,12.90
2022-12-20T00:32:50.820Z,12.90
2022-12-20T00:33:53.292Z,12.47
2022-12-20T00:34:55.118Z,12.80
2022-12-20T00:35:57.999Z,12.70
2022-12-20T00:37:00.217Z,13.13
2022-12-20T00:38:02.227Z,13.13
2022-12-20T00:39:04.060Z,13.07
2022-12-20T00:40:09.901Z,11.90
2022-12-20T00:41:13.208Z,12.23
2022-12-20T00:42:15.958Z,13.17
2022-12-20T00:43:19.854Z,12.67
2022-12-20T00:44:21.681Z,12.93
2022-12-20T00:45:23.553Z,12.73
2022-12-20T00:46:25.915Z,13.03
2022-12-20T00:47:30.513Z,12.90
2022-12-20T00:48:33.583Z,12.80
2022-12-20T00:49:35.256Z,13.20
2022-12-20T00:50:37.190Z,12.93
2022-12-20T00:51:42.298Z,12.30
2022-12-20T00:52:44.809Z,12.87
2022-12-20T00:53:50.981Z,12.80
2022-12-20T00:54:53.100Z,12.13
2022-12-20T00:55:58.369Z,12.70
2022-12-20T00:57:01.162Z,13.37
2022-12-20T00:58:05.824Z,12.70
2022-12-20T00:59:11.209Z,13.07
2022-12-20T01:00:13.116Z,13.03
2022-12-20T01:01:30.391Z,13.40
2022-12-20T01:02:32.479Z,13.47
2022-12-20T01:03:34.665Z,12.67
2022-12-20T01:04:37.412Z,13.00
2022-12-20T01:05:39.857Z,13.03
2022-12-20T01:06:44.451Z,12.20
2022-12-20T01:07:46.122Z,13.67
2022-12-20T01:08:49.927Z,12.87
2022-12-20T01:09:52.452Z,12.93
2022-12-20T01:11:01.376Z,13.73
2022-12-20T01:12:03.211Z,13.60
2022-12-20T01:13:04.964Z,13.00
2022-12-20T01:14:08.182Z,13.77
2022-12-20T01:15:10.746Z,13.00
2022-12-20T01:16:22.830Z,13.27
2022-12-20T01:17:24.965Z,12.93
2022-12-20T01:18:26.602Z,13.17
2022-12-20T01:19:28.320Z,12.93
2022-12-20T01:20:30.309Z,12.70
2022-12-20T01:21:42.643Z,12.10
2022-12-20T01:24:11.576Z,12.40
2022-12-20T01:25:13.083Z,12.67
2022-12-20T01:26:17.092Z,12.37
2022-12-20T01:27:18.465Z,12.30
2022-12-20T01:28:20.399Z,12.07
2022-12-20T01:29:21.777Z,11.83
2022-12-20T01:30:23.187Z,13.20
2022-12-20T01:31:25.972Z,12.57
2022-12-20T01:32:27.421Z,13.40
2022-12-20T01:33:28.875Z,13.43
2022-12-20T01:34:30.197Z,12.50
2022-12-20T01:35:31.673Z,12.83
2022-12-20T01:36:35.548Z,12.60
2022-12-20T01:37:36.963Z,12.93
2022-12-20T01:38:38.436Z,12.77
2022-12-20T01:39:39.942Z,11.87
2022-12-20T01:40:41.292Z,12.93
2022-12-20T01:41:43.774Z,12.43
2022-12-20T01:42:45.139Z,12.37
2022-12-20T01:43:55.953Z,13.27
2022-12-20T01:44:58.344Z,12.03
2022-12-20T01:46:00.485Z,12.07
2022-12-20T01:47:01.988Z,12.90
2022-12-20T01:48:03.477Z,12.87
2022-12-20T01:49:07.730Z,12.37
2022-12-20T01:50:09.279Z,11.67
2022-12-20T01:51:11.032Z,11.97
2022-12-20T01:52:14.101Z,11.97
2022-12-20T01:53:16.785Z,12.03
2022-12-20T01:54:24.019Z,12.20
2022-12-20T01:55:27.356Z,12.30
2022-12-20T01:56:29.241Z,12.17
2022-12-20T01:57:39.809Z,12.27
2022-12-20T01:58:42.043Z,12.17
2022-12-20T01:59:44.784Z,12.67
2022-12-20T02:00:46.558Z,12.17
2022-12-20T02:01:48.294Z,14.20
2022-12-20T02:02:49.985Z,12.63
2022-12-20T02:03:52.377Z,12.70
2022-12-20T02:04:53.929Z,12.33
2022-12-20T02:05:55.274Z,12.27
2022-12-20T02:06:58.041Z,11.53
2022-12-20T02:07:59.505Z,12.63
2022-12-20T02:09:02.051Z,12.20
2022-12-20T02:10:04.265Z,12.07
2022-12-20T02:11:21.579Z,11.97
2022-12-20T02:12:25.259Z,11.60
2022-12-20T02:13:47.184Z,11.70
2022-12-20T02:15:03.566Z,12.27
2022-12-20T02:16:05.192Z,12.63
2022-12-20T02:17:10.970Z,12.07
2022-12-20T02:18:16.089Z,12.70
2022-12-20T02:19:36.090Z,12.23
2022-12-20T02:20:56.526Z,12.17
2022-12-20T02:22:01.069Z,11.80
2022-12-20T02:23:21.248Z,13.60
2022-12-20T02:24:43.116Z,13.30
2022-12-20T02:25:53.236Z,13.23
2022-12-20T02:27:06.368Z,12.73
2022-12-20T02:28:07.719Z,12.37
2022-12-20T02:29:22.206Z,11.90
2022-12-20T02:30:24.989Z,12.80
2022-12-20T02:31:29.859Z,12.33
2022-12-20T02:32:52.143Z,12.10
2022-12-20T02:33:55.172Z,13.13
2022-12-20T02:34:56.856Z,13.43
2022-12-20T02:35:58.234Z,11.97
2022-12-20T02:37:00.272Z,12.27
2022-12-20T02:38:03.723Z,12.10
2022-12-20T02:39:06.313Z,12.30
2022-12-20T02:40:08.529Z,12.37
2022-12-20T02:41:21.829Z,11.63
2022-12-20T02:42:25.734Z,11.80
2022-12-20T02:43:47.477Z,12.30
2022-12-20T02:45:10.867Z,12.03
2022-12-20T02:46:13.025Z,13.10
2022-12-20T02:47:18.561Z,12.77
2022-12-20T02:48:20.462Z,12.67
2022-12-20T02:49:24.187Z,11.90
2022-12-20T02:50:31.758Z,11.67
2022-12-20T02:51:33.389Z,11.47
2022-12-20T02:52:35.697Z,11.90
2022-12-20T02:53:37.786Z,12.33
2022-12-20T02:54:39.257Z,12.20
2022-12-20T02:55:49.564Z,12.80
2022-12-20T02:57:02.371Z,11.83
2022-12-20T02:58:06.826Z,11.80
2022-12-20T02:59:13.701Z,11.80
2022-12-20T03:00:23.554Z,11.97
2022-12-20T03:01:30.402Z,11.43
2022-12-20T03:02:51.483Z,12.07
2022-12-20T03:03:54.400Z,11.73
2022-12-20T03:04:57.217Z,11.77
2022-12-20T03:05:58.589Z,11.53
2022-12-20T03:07:04.386Z,11.63
2022-12-20T03:08:05.910Z,10.80
2022-12-20T03:09:07.292Z,11.43
2022-12-20T03:10:10.615Z,11.43
2022-12-20T03:11:12.078Z,11.03
2022-12-20T03:12:14.308Z,10.83
2022-12-20T03:13:16.160Z,10.97
2022-12-20T03:14:24.764Z,11.33
2022-12-20T03:15:27.268Z,11.23
2022-12-20T03:16:31.185Z,11.27
2022-12-20T03:17:32.604Z,11.37
2022-12-20T03:18:34.096Z,11.60
2022-12-20T03:19:35.562Z,12.17
2022-12-20T03:20:36.968Z,11.93
2022-12-20T03:21:38.476Z,11.60
2022-12-20T03:22:39.897Z,10.90
2022-12-20T03:23:41.336Z,11.40
2022-12-20T03:24:43.455Z,12.20
2022-12-20T03:25:47.312Z,12.07
2022-12-20T03:26:56.282Z,11.37
2022-12-20T03:27:59.222Z,11.87
2022-12-20T03:29:26.501Z,11.83
2022-12-20T03:30:27.871Z,11.70
2022-12-20T03:31:29.269Z,12.57
2022-12-20T03:32:30.754Z,11.50
2022-12-20T03:33:32.618Z,13.10
2022-12-20T03:34:36.673Z,13.03
2022-12-20T03:35:38.274Z,11.73
2022-12-20T03:36:39.598Z,11.90
2022-12-20T03:37:41.122Z,11.83
2022-12-20T03:38:42.872Z,12.47
2022-12-20T03:39:44.295Z,11.93
2022-12-20T03:40:45.795Z,12.43
2022-12-20T03:41:50.349Z,12.40
2022-12-20T03:42:53.151Z,12.03
2022-12-20T03:43:54.623Z,13.10
2022-12-20T03:44:57.233Z,12.20
2022-12-20T03:46:01.187Z,13.10
2022-12-20T03:47:07.027Z,13.60
2022-12-20T03:48:10.727Z,12.20
2022-12-20T03:49:12.805Z,12.60
2022-12-20T03:50:20.167Z,13.53
2022-12-20T03:51:21.583Z,12.60
2022-12-20T03:52:22.986Z,13.73
2022-12-20T03:53:24.394Z,12.90
2022-12-20T03:54:26.249Z,12.67
2022-12-20T03:55:46.530Z,12.87
2022-12-20T03:56:48.993Z,12.33
2022-12-20T03:57:50.353Z,12.40
2022-12-20T03:59:00.045Z,12.90
2022-12-20T04:00:01.581Z,12.50
2022-12-20T04:01:15.888Z,12.97
2022-12-20T04:02:18.588Z,12.00
2022-12-20T04:03:20.261Z,12.10
2022-12-20T04:04:21.754Z,11.63
2022-12-20T04:05:23.089Z,12.97
2022-12-20T04:06:25.214Z,11.73
2022-12-20T04:07:26.747Z,12.60
2022-12-20T04:08:28.304Z,11.43
2022-12-20T04:09:30.035Z,11.93
2022-12-20T04:10:58.624Z,12.77
2022-12-20T04:12:02.957Z,12.37
2022-12-20T04:13:05.694Z,12.37
2022-12-20T04:14:07.169Z,12.20
2022-12-20T04:15:08.658Z,12.27
2022-12-20T04:16:11.878Z,11.50
2022-12-20T04:17:13.302Z,12.10
2022-12-20T04:18:15.100Z,12.17
2022-12-20T04:19:17.019Z,11.97
2022-12-20T04:20:21.189Z,12.23
2022-12-20T04:21:31.331Z,12.03
2022-12-20T04:22:33.291Z,12.33
2022-12-20T04:23:39.676Z,13.00
2022-12-20T04:24:41.477Z,12.40
2022-12-20T04:26:06.484Z,11.53
2022-12-20T04:27:08.386Z,11.93
2022-12-20T04:28:10.027Z,12.07
2022-12-20T04:29:12.392Z,12.27
2022-12-20T04:30:15.425Z,11.83
2022-12-20T04:31:21.892Z,11.50
2022-12-20T04:32:25.630Z,11.77
2022-12-20T04:33:27.401Z,12.43
2022-12-20T04:34:29.067Z,11.90
2022-12-20T04:35:30.667Z,12.27
2022-12-20T04:36:32.368Z,12.40
2022-12-20T04:37:36.337Z,12.10
2022-12-20T04:38:37.828Z,12.20
2022-12-20T04:39:39.252Z,12.07
2022-12-20T04:40:59.555Z,12.57
2022-12-20T04:42:04.835Z,12.33
2022-12-20T04:43:06.344Z,12.03
2022-12-20T04:44:07.873Z,12.17
2022-12-20T04:45:11.608Z,12.20
2022-12-20T04:46:13.121Z,12.17
2022-12-20T04:47:14.613Z,11.30
2022-12-20T04:48:54.670Z,11.57
2022-12-20T04:49:37.644Z,11.50
2022-12-20T04:50:39.484Z,11.90
2022-12-20T04:51:40.901Z,11.47
2022-12-20T04:53:01.186Z,10.97
2022-12-20T04:54:02.928Z,11.87
2022-12-20T04:55:23.046Z,11.20
2022-12-20T04:56:26.235Z,11.00
2022-12-20T04:57:27.701Z,10.97
2022-12-20T04:58:29.118Z,11.73
2022-12-20T04:59:30.523Z,11.40
2022-12-20T05:00:32.257Z,11.00
2022-12-20T05:01:41.690Z,11.23
2022-12-20T05:02:43.830Z,10.73
2022-12-20T05:03:49.479Z,10.73
2022-12-20T05:04:51.122Z,10.83
2022-12-20T05:05:52.660Z,10.73
2022-12-20T05:06:55.026Z,11.07
2022-12-20T05:07:56.469Z,10.90
2022-12-20T05:08:58.722Z,11.30
2022-12-20T05:10:00.154Z,10.80
2022-12-20T05:11:01.684Z,10.53
2022-12-20T05:12:03.595Z,11.03
2022-12-20T05:13:09.213Z,10.37
2022-12-20T05:14:15.119Z,11.70
2022-12-20T05:15:16.595Z,11.33
2022-12-20T05:16:18.481Z,10.37
2022-12-20T05:17:20.637Z,10.40
2022-12-20T05:18:22.625Z,10.93
2022-12-20T05:19:32.006Z,11.27
2022-12-20T05:20:33.877Z,10.77
2022-12-20T05:22:05.195Z,10.90
2022-12-20T05:23:28.134Z,10.73
2022-12-20T05:24:57.115Z,10.70
2022-12-20T05:26:18.605Z,10.57
2022-12-20T05:27:20.663Z,11.70
2022-12-20T05:28:22.231Z,11.23
2022-12-20T05:29:23.657Z,10.80
2022-12-20T05:30:25.640Z,11.30
2022-12-20T05:31:27.796Z,11.13
2022-12-20T05:32:29.479Z,11.23
2022-12-20T05:33:34.260Z,11.33
2022-12-20T05:34:37.111Z,11.60
2022-12-20T05:35:38.823Z,12.07
2022-12-20T05:36:44.887Z,12.20
2022-12-20T05:37:46.243Z,11.30
2022-12-20T05:38:52.023Z,12.00
2022-12-20T05:39:54.503Z,12.07
2022-12-20T05:40:58.353Z,12.33
2022-12-20T05:42:00.445Z,12.60
2022-12-20T05:43:02.732Z,12.47
2022-12-20T05:44:15.695Z,12.50
2022-12-20T05:45:20.370Z,12.40
2022-12-20T05:46:30.634Z,11.77
2022-12-20T05:47:36.803Z,11.80
2022-12-20T05:48:42.411Z,11.87
2022-12-20T05:49:45.253Z,12.37
2022-12-20T05:50:47.152Z,12.13
2022-12-20T05:52:14.821Z,11.93
2022-12-20T05:53:17.278Z,12.57
2022-12-20T05:54:25.266Z,11.43
2022-12-20T05:55:51.535Z,11.57
2022-12-20T05:56:54.154Z,12.37
2022-12-20T05:58:00.877Z,12.30
2022-12-20T05:59:19.067Z,11.93
2022-12-20T06:00:21.717Z,12.13
2022-12-20T06:01:25.696Z,12.37
2022-12-20T06:02:32.013Z,11.60
2022-12-20T06:04:59.942Z,11.13
2022-12-20T06:06:08.706Z,12.30
2022-12-20T06:14:04.926Z,11.63
2022-12-20T06:15:09.210Z,11.30
2022-12-20T06:16:45.906Z,11.77
2022-12-20T06:17:51.620Z,11.90
2022-12-20T06:18:53.333Z,10.83
2022-12-20T06:20:00.065Z,10.47
2022-12-20T06:21:02.006Z,11.37
2022-12-20T06:22:03.581Z,11.50
2022-12-20T06:23:15.051Z,11.00
2022-12-20T06:24:25.313Z,10.80
2022-12-20T06:25:41.926Z,10.83
2022-12-20T06:26:43.323Z,11.30
2022-12-20T06:27:44.723Z,11.00
2022-12-20T06:29:04.603Z,9.70
2022-12-20T06:30:12.127Z,10.83
2022-12-20T06:31:29.339Z,10.47
2022-12-20T06:32:34.156Z,10.80
2022-12-20T06:33:35.819Z,10.67
2022-12-20T06:34:40.486Z,10.10
2022-12-20T06:35:41.893Z,10.70
2022-12-20T06:37:21.432Z,10.60
2022-12-20T06:38:35.190Z,10.33
2022-12-20T06:39:36.582Z,9.67
2022-12-20T06:40:48.317Z,10.77
2022-12-20T06:41:49.679Z,10.80
2022-12-20T06:42:51.111Z,10.20
2022-12-20T06:44:07.273Z,10.10
2022-12-20T06:45:16.177Z,10.23
2022-12-20T06:46:18.169Z,9.83
2022-12-20T06:47:20.155Z,10.43
2022-12-20T06:48:21.584Z,10.07
2022-12-20T06:49:24.021Z,10.70
2022-12-20T06:50:26.814Z,10.43
2022-12-20T06:51:28.218Z,10.47
2022-12-20T06:53:01.065Z,9.87
2022-12-20T06:54:02.381Z,9.60
2022-12-20T06:55:06.629Z,9.47
2022-12-20T06:56:14.121Z,9.43
2022-12-20T06:57:15.897Z,9.90
2022-12-20T06:58:24.053Z,10.07
2022-12-20T06:59:25.586Z,10.17
2022-12-20T07:00:34.986Z,10.57
2022-12-20T07:01:36.557Z,10.40
2022-12-20T07:02:49.331Z,9.60
2022-12-20T07:03:50.852Z,9.77
2022-12-20T07:04:52.256Z,9.83
2022-12-20T07:05:54.266Z,9.70
2022-12-20T07:07:04.607Z,9.70
2022-12-20T07:08:06.495Z,9.63
2022-12-20T07:09:16.652Z,9.20
2022-12-20T07:10:23.851Z,9.90
2022-12-20T07:11:25.230Z,9.60
2022-12-20T07:12:35.138Z,9.07
2022-12-20T07:13:36.566Z,9.87
2022-12-20T07:14:42.169Z,8.83
2022-12-20T07:15:43.867Z,8.70
2022-12-20T07:16:45.911Z,8.93
2022-12-20T07:17:50.107Z,9.13
2022-12-20T07:18:52.510Z,8.93
2022-12-20T07:19:53.895Z,9.03
2022-12-20T07:21:03.263Z,15.17
2022-12-20T07:22:05.607Z,10.83
2022-12-20T07:23:08.175Z,11.60
2022-12-20T07:24:09.842Z,10.97
2022-12-20T07:25:12.967Z,10.60
2022-12-20T07:26:20.699Z,9.60
2022-12-20T07:27:22.153Z,9.67
2022-12-20T07:28:26.611Z,9.43
2022-12-20T07:29:28.551Z,9.30
2022-12-20T07:30:32.985Z,9.90
2022-12-20T07:31:34.356Z,8.57
2022-12-20T07:32:35.984Z,8.73
2022-12-20T07:35:01.343Z,8.83
2022-12-20T07:36:12.876Z,9.20
2022-12-20T07:37:18.531Z,9.00
2022-12-20T07:38:19.893Z,9.20
2022-12-20T07:39:21.336Z,8.57
2022-12-20T07:40:22.847Z,9.07
2022-12-20T07:41:28.007Z,9.23
2022-12-20T07:42:35.809Z,9.43
2022-12-20T07:43:40.833Z,10.00
2022-12-20T07:44:49.058Z,10.23
2022-12-20T07:46:04.213Z,9.63
2022-12-20T07:47:06.217Z,9.80
2022-12-20T07:48:16.048Z,10.23
2022-12-20T07:49:22.336Z,9.43
2022-12-20T07:50:24.451Z,10.30
2022-12-20T07:51:31.921Z,10.27
2022-12-20T07:52:34.225Z,9.80
2022-12-20T07:53:40.394Z,9.80
2022-12-20T07:54:45.927Z,9.40
2022-12-20T07:55:50.094Z,9.83
2022-12-20T07:56:54.454Z,10.10
2022-12-20T07:58:03.442Z,9.07
2022-12-20T07:59:04.953Z,9.40
2022-12-20T08:00:14.399Z,9.50
2022-12-20T08:01:16.021Z,9.80
2022-12-20T08:02:23.700Z,9.97
2022-12-20T08:03:32.409Z,9.23
2022-12-20T08:04:34.166Z,9.93
2022-12-20T08:05:44.706Z,9.73
2022-12-20T08:06:46.464Z,9.90
2022-12-20T08:07:56.812Z,9.00
2022-12-20T08:09:02.619Z,8.50
2022-12-20T08:10:05.335Z,9.00
2022-12-20T08:11:31.067Z,8.60
2022-12-20T08:12:39.048Z,9.60
2022-12-20T08:13:51.531Z,9.13
2022-12-20T08:14:58.410Z,9.17
2022-12-20T08:16:09.160Z,9.03
2022-12-20T08:17:11.742Z,9.20
2022-12-20T08:18:16.286Z,9.67
2022-12-20T08:19:17.658Z,9.33
2022-12-20T08:20:21.132Z,9.03
2022-12-20T08:21:34.407Z,9.37
2022-12-20T08:22:40.227Z,8.93
2022-12-20T08:23:41.599Z,9.47
2022-12-20T08:24:43.025Z,9.87
2022-12-20T08:25:44.683Z,9.10
2022-12-20T08:26:50.840Z,9.77
2022-12-20T08:28:02.340Z,9.07
2022-12-20T08:29:09.720Z,8.67
2022-12-20T08:30:11.405Z,8.07
2022-12-20T08:31:13.029Z,7.47
2022-12-20T08:32:16.027Z,8.20
2022-12-20T08:33:24.688Z,9.53
2022-12-20T08:34:31.369Z,9.77
2022-12-20T08:35:32.838Z,9.20
2022-12-20T08:36:34.187Z,8.67
2022-12-20T08:37:43.248Z,9.03
2022-12-20T08:38:48.921Z,7.97
2022-12-20T08:39:50.261Z,8.27
2022-12-20T08:40:56.751Z,7.63
2022-12-20T08:42:01.129Z,7.53
2022-12-20T08:43:10.171Z,7.37
2022-12-20T08:44:22.378Z,8.57
2022-12-20T08:45:26.833Z,7.33
2022-12-20T08:46:28.294Z,7.93
2022-12-20T08:47:30.632Z,8.23
2022-12-20T08:48:32.845Z,7.37
2022-12-20T08:49:41.131Z,7.97
2022-12-20T08:51:11.144Z,8.03
2022-12-20T08:52:12.564Z,8.10
2022-12-20T08:53:13.891Z,8.47
2022-12-20T08:54:15.244Z,7.33
2022-12-20T08:55:16.670Z,8.30
2022-12-20T08:56:20.523Z,8.40
2022-12-20T08:57:26.787Z,8.23
2022-12-20T08:58:31.260Z,8.40
2022-12-20T08:59:41.586Z,8.20
2022-12-20T09:00:43.039Z,7.50
2022-12-20T09:01:44.545Z,8.07
2022-12-20T09:02:47.394Z,7.83
2022-12-20T09:03:49.146Z,8.37
2022-12-20T09:04:50.643Z,7.23
2022-12-20T09:05:52.020Z,7.23
2022-12-20T09:06:53.564Z,7.93
2022-12-20T09:07:54.943Z,7.60
2022-12-20T09:08:56.346Z,8.03
2022-12-20T09:09:57.691Z,7.37
2022-12-20T09:11:05.415Z,7.63
2022-12-20T09:12:07.747Z,6.83
2022-12-20T09:13:09.676Z,8.67
2022-12-20T09:14:11.084Z,8.77
2022-12-20T09:15:12.576Z,9.37
2022-12-20T09:16:15.832Z,8.77
2022-12-20T09:17:17.194Z,8.23
2022-12-20T09:18:18.495Z,7.97
2022-12-20T09:19:19.849Z,8.10
2022-12-20T09:20:21.284Z,7.90
2022-12-20T09:21:23.145Z,7.70
2022-12-20T09:22:24.483Z,8.27
2022-12-20T09:23:25.788Z,8.50
2022-12-20T09:24:27.106Z,9.20
2022-12-20T09:25:28.918Z,8.87
2022-12-20T09:26:30.942Z,8.40
2022-12-20T09:27:32.308Z,8.73
2022-12-20T09:28:34.082Z,10.63
2022-12-20T09:29:35.963Z,11.70
2022-12-20T09:30:37.596Z,12.97
2022-12-20T09:31:39.184Z,12.83
2022-12-20T09:32:43.556Z,16.37
2022-12-20T09:33:44.918Z,23.73
2022-12-20T09:34:47.333Z,20.87
2022-12-20T09:35:48.752Z,21.77
2022-12-20T09:36:50.105Z,21.27
2022-12-20T09:37:51.413Z,18.97
2022-12-20T09:38:53.930Z,14.60
2022-12-20T09:39:55.342Z,12.63
2022-12-20T09:41:04.049Z,10.07
2022-12-20T09:42:07.322Z,8.30
2022-12-20T09:43:09.207Z,7.90
2022-12-20T09:44:13.921Z,8.67
2022-12-20T09:45:24.316Z,9.53
2022-12-20T09:46:26.067Z,9.10
2022-12-20T09:47:27.522Z,8.90
2022-12-20T09:48:33.644Z,8.50
2022-12-20T09:49:36.194Z,8.47
2022-12-20T09:50:43.764Z,7.83
2022-12-20T09:51:48.099Z,7.60
2022-12-20T09:53:06.431Z,8.50
2022-12-20T09:54:22.549Z,7.20
2022-12-20T09:55:26.642Z,8.07
2022-12-20T09:56:51.247Z,7.43
2022-12-20T09:57:55.843Z,6.17
2022-12-20T09:58:59.137Z,6.60
2022-12-20T10:00:00.681Z,6.80
2022-12-20T10:01:15.315Z,6.03
2022-12-20T10:02:54.239Z,5.90
2022-12-20T10:03:42.154Z,6.13
2022-12-20T10:04:44.042Z,6.07
2022-12-20T10:05:49.245Z,6.83
2022-12-20T10:07:09.358Z,6.87
2022-12-20T10:08:24.019Z,6.93
2022-12-20T10:09:34.720Z,7.33
2022-12-20T10:10:52.504Z,7.10
2022-12-20T10:11:56.860Z,6.73
2022-12-20T10:13:22.611Z,7.20
2022-12-20T10:14:26.744Z,6.23
2022-12-20T10:15:32.005Z,6.53
2022-12-20T10:16:44.782Z,6.60
2022-12-20T10:17:56.075Z,6.40
2022-12-20T10:19:16.431Z,6.00
2022-12-20T10:20:21.163Z,6.77
2022-12-20T10:21:35.877Z,6.43
2022-12-20T10:22:49.153Z,6.00
2022-12-20T10:23:59.560Z,6.73
2022-12-20T10:25:15.700Z,6.97
2022-12-20T10:26:17.080Z,7.33
2022-12-20T10:27:19.375Z,7.00
2022-12-20T10:28:24.620Z,6.80
2022-12-20T10:29:26.276Z,6.70
2022-12-20T10:30:28.087Z,6.90
2022-12-20T10:31:29.527Z,6.90
2022-12-20T10:32:31.389Z,7.10
2022-12-20T10:33:32.947Z,7.23
2022-12-20T10:34:38.283Z,6.67
2022-12-20T10:35:43.270Z,7.80
2022-12-20T10:36:44.763Z,6.50
2022-12-20T10:38:17.571Z,7.30
2022-12-20T10:39:35.735Z,6.47
2022-12-20T10:41:20.102Z,7.27
2022-12-20T10:41:59.936Z,7.37
2022-12-20T10:43:02.027Z,6.93
2022-12-20T10:44:05.020Z,6.80
2022-12-20T10:45:15.509Z,6.90
2022-12-20T10:46:16.985Z,6.80
2022-12-20T10:47:24.683Z,7.33
2022-12-20T10:48:30.478Z,7.13
2022-12-20T10:49:31.858Z,7.30
2022-12-20T10:50:33.308Z,7.37
2022-12-20T10:51:34.643Z,7.53
2022-12-20T10:52:36.026Z,7.13
2022-12-20T10:53:42.115Z,8.17
2022-12-20T10:54:46.721Z,7.80
2022-12-20T10:55:48.247Z,7.53
2022-12-20T10:56:57.582Z,8.07
2022-12-20T10:58:02.391Z,8.27
2022-12-20T10:59:22.782Z,8.90
2022-12-20T11:00:29.616Z,8.53
2022-12-20T11:01:32.453Z,8.00
2022-12-20T11:02:40.536Z,7.63
2022-12-20T11:03:51.023Z,8.27
2022-12-20T11:05:00.860Z,7.60
2022-12-20T11:06:04.442Z,8.10
2022-12-20T11:07:22.916Z,9.50
2022-12-20T11:08:51.110Z,9.03
2022-12-20T11:09:58.136Z,9.93
2022-12-20T11:11:23.015Z,8.80
2022-12-20T11:12:24.480Z,8.23
2022-12-20T11:13:26.485Z,8.23
2022-12-20T11:14:32.841Z,8.30
2022-12-20T11:15:49.055Z,8.13
2022-12-20T11:16:55.734Z,8.73
2022-12-20T11:18:01.461Z,8.33
2022-12-20T11:19:06.853Z,7.93
2022-12-20T11:20:16.647Z,8.17
2022-12-20T11:21:28.487Z,8.00
2022-12-20T11:22:37.387Z,8.27
2022-12-20T11:23:43.418Z,8.20
2022-12-20T11:24:50.852Z,8.37
2022-12-20T11:26:10.095Z,7.97
2022-12-20T11:27:16.103Z,7.87
2022-12-20T11:28:28.484Z,8.50
2022-12-20T11:29:41.261Z,8.13
2022-12-20T11:31:01.429Z,8.53
2022-12-20T11:32:08.224Z,8.03
2022-12-20T11:33:28.089Z,7.70
2022-12-20T11:34:36.268Z,8.20
2022-12-20T11:35:47.026Z,8.30
2022-12-20T11:36:51.877Z,8.40
2022-12-20T11:38:11.857Z,8.40
2022-12-20T11:39:25.340Z,8.03
2022-12-20T11:40:30.456Z,8.30
2022-12-20T11:41:52.218Z,8.40
2022-12-20T11:43:12.402Z,8.33
2022-12-20T11:44:27.205Z,8.20
2022-12-20T11:45:41.117Z,8.07
2022-12-20T11:46:48.678Z,8.37
2022-12-20T11:48:09.767Z,7.87
2022-12-20T11:49:20.054Z,8.63
2022-12-20T11:50:24.587Z,8.37
2022-12-20T11:51:29.163Z,8.90
2022-12-20T11:52:49.552Z,8.50
2022-12-20T11:53:54.865Z,9.00
2022-12-20T11:55:06.299Z,8.80
2022-12-20T11:56:18.405Z,7.57
2022-12-20T11:57:42.510Z,8.47
2022-12-20T11:58:57.586Z,8.63
2022-12-20T12:00:02.618Z,8.93
2022-12-20T12:01:15.928Z,8.53
2022-12-20T12:02:26.391Z,9.17
2022-12-20T12:03:30.367Z,8.47
2022-12-20T12:04:34.387Z,8.73
2022-12-20T12:05:39.701Z,8.67
2022-12-20T12:06:44.046Z,9.73
2022-12-20T12:07:47.679Z,9.43
2022-12-20T12:08:53.365Z,8.80
2022-12-20T12:10:09.943Z,13.87
2022-12-20T12:11:47.718Z,10.67
2022-12-20T12:12:45.812Z,10.00
2022-12-20T12:13:47.882Z,9.20
2022-12-20T12:14:52.024Z,9.27
2022-12-20T12:16:08.989Z,8.73
2022-12-20T12:17:25.532Z,8.97
2022-12-20T12:18:31.437Z,9.40
2022-12-20T12:19:34.537Z,9.33
2022-12-20T12:20:39.393Z,9.70
2022-12-20T12:21:46.814Z,9.97
2022-12-20T12:22:50.127Z,10.00
2022-12-20T12:23:51.528Z,10.20
2022-12-20T12:24:54.354Z,9.10
2022-12-20T12:25:58.234Z,9.60
2022-12-20T12:27:00.131Z,10.07
2022-12-20T12:28:02.232Z,9.77
2022-12-20T12:29:07.677Z,8.80
2022-12-20T12:30:13.071Z,8.73
2022-12-20T12:31:19.105Z,8.73
2022-12-20T12:32:35.044Z,8.50
2022-12-20T12:33:43.431Z,8.67
2022-12-20T12:35:03.667Z,8.87
2022-12-20T12:36:23.759Z,9.17
2022-12-20T12:37:46.649Z,8.83
2022-12-20T12:39:07.212Z,8.67
2022-12-20T12:40:16.788Z,8.83
2022-12-20T12:41:31.298Z,9.23
2022-12-20T12:42:51.825Z,9.17
2022-12-20T12:43:54.266Z,8.53
2022-12-20T12:45:01.349Z,8.50
2022-12-20T12:46:04.259Z,8.47
2022-12-20T12:47:27.939Z,9.17
2022-12-20T12:48:52.121Z,9.30
2022-12-20T12:49:55.073Z,8.57
2022-12-20T12:51:05.017Z,7.90
2022-12-20T12:52:14.295Z,8.23
2022-12-20T12:53:33.223Z,7.83
2022-12-20T12:54:43.649Z,8.67
2022-12-20T12:55:46.522Z,7.97
2022-12-20T12:56:52.387Z,7.50
2022-12-20T12:57:57.345Z,8.50
2022-12-20T12:59:18.328Z,8.00
2022-12-20T13:00:38.181Z,8.27
2022-12-20T13:01:47.643Z,8.30
2022-12-20T13:03:01.226Z,7.60
2022-12-20T13:04:15.181Z,7.60
2022-12-20T13:05:26.565Z,7.50
2022-12-20T13:06:35.659Z,7.40
2022-12-20T13:07:37.068Z,8.53
2022-12-20T13:08:48.984Z,9.03
2022-12-20T13:09:54.231Z,8.27
2022-12-20T13:10:56.964Z,9.10
2022-12-20T13:12:02.422Z,8.40
2022-12-20T13:13:23.762Z,7.83
2022-12-20T13:14:28.594Z,7.90
2022-12-20T13:15:36.033Z,7.87
2022-12-20T13:17:10.907Z,8.30
2022-12-20T13:18:15.130Z,7.70
2022-12-20T13:19:34.954Z,8.37
2022-12-20T13:20:36.658Z,8.43
2022-12-20T13:21:39.100Z,9.27
2022-12-20T13:22:56.025Z,7.90
2022-12-20T13:24:16.218Z,8.47
2022-12-20T13:25:29.251Z,8.77
2022-12-20T13:26:50.724Z,7.60
2022-12-20T13:27:54.784Z,6.83
2022-12-20T13:28:56.403Z,7.70
2022-12-20T13:30:17.277Z,8.20
2022-12-20T13:31:29.632Z,7.63
2022-12-20T13:32:57.408Z,7.70
2022-12-20T13:34:07.350Z,6.87
2022-12-20T13:35:27.760Z,7.10
2022-12-20T13:36:42.108Z,8.27
2022-12-20T13:38:05.986Z,8.20
2022-12-20T13:39:30.241Z,8.00
2022-12-20T13:40:45.475Z,8.00
2022-12-20T13:41:56.931Z,8.27
2022-12-20T13:43:02.664Z,7.93
2022-12-20T13:44:24.278Z,6.70
2022-12-20T13:45:26.334Z,7.60
2022-12-20T13:46:35.379Z,7.00
2022-12-20T13:47:46.179Z,7.13
2022-12-20T13:48:47.559Z,7.30
2022-12-20T13:49:54.923Z,6.57
2022-12-20T13:50:57.279Z,6.67
2022-12-20T13:52:22.714Z,6.90
2022-12-20T13:53:25.388Z,6.80
2022-12-20T13:54:27.792Z,6.83
2022-12-20T13:55:45.308Z,6.83
2022-12-20T13:56:52.321Z,6.43
2022-12-20T13:57:53.901Z,6.57
2022-12-20T13:59:00.547Z,7.57
2022-12-20T14:00:07.477Z,7.57
2022-12-20T14:01:13.239Z,7.27
2022-12-20T14:02:41.752Z,6.83
2022-12-20T14:03:46.154Z,6.70
2022-12-20T14:05:11.753Z,6.90
2022-12-20T14:06:14.351Z,8.57
2022-12-20T14:07:17.155Z,7.63
2022-12-20T14:08:22.430Z,8.43
2022-12-20T14:09:36.707Z,7.97
2022-12-20T14:10:38.144Z,8.47
2022-12-20T14:11:47.166Z,9.40
2022-12-20T14:12:51.890Z,9.27
2022-12-20T14:13:56.344Z,8.53
2022-12-20T14:14:57.712Z,8.43
2022-12-20T14:16:06.979Z,8.20
2022-12-20T14:17:14.832Z,7.50
2022-12-20T14:18:19.981Z,8.00
2022-12-20T14:19:21.367Z,7.80
2022-12-20T14:20:33.795Z,8.17
2022-12-20T14:21:36.629Z,7.67
2022-12-20T14:22:41.829Z,7.80
2022-12-20T14:23:45.365Z,7.60
2022-12-20T14:24:46.929Z,7.30
2022-12-20T14:25:48.275Z,7.00
2022-12-20T14:26:51.880Z,7.17
2022-12-20T14:27:53.265Z,7.63
2022-12-20T14:28:56.139Z,7.10
2022-12-20T14:29:57.666Z,7.60
2022-12-20T14:31:01.243Z,8.60
2022-12-20T14:32:03.521Z,8.27
2022-12-20T14:33:04.877Z,7.83
2022-12-20T14:34:29.756Z,8.70
2022-12-20T14:35:32.291Z,8.33
2022-12-20T14:36:34.419Z,7.87
2022-12-20T14:37:37.403Z,7.60
2022-12-20T14:38:38.964Z,7.43
2022-12-20T14:39:53.682Z,7.00
2022-12-20T14:40:55.945Z,7.73